sensor_id;sensor_type;location;lat;lon;timestamp;P1;durP1;ratioP1;P2;durP2;ratioP2
13927;SDS011;7036;50.834;4.718;2023-08-24T00:01:51;2.53;;;2.27;;
13927;SDS011;7036;50.834;4.718;2023-08-24T00:04:18;4.10;;;2.40;;
13927;SDS011;7036;50.834;4.718;2023-08-24T00:06:44;3.00;;;2.23;;
13927;SDS011;7036;50.834;4.718;2023-08-24T00:09:11;3.67;;;2.53;;
13927;SDS011;7036;50.834;4.718;2023-08-24T00:11:38;2.83;;;2.23;;
13927;SDS011;7036;50.834;4.718;2023-08-24T00:14:05;3.00;;;2.67;;
13927;SDS011;7036;50.834;4.718;2023-08-24T00:16:32;2.87;;;2.10;;
13927;SDS011;7036;50.834;4.718;2023-08-24T00:18:59;2.60;;;2.40;;
13927;SDS011;7036;50.834;4.718;2023-08-24T00:21:26;2.50;;;2.20;;
13927;SDS011;7036;50.834;4.718;2023-08-24T00:23:53;2.30;;;2.10;;
13927;SDS011;7036;50.834;4.718;2023-08-24T00:26:20;2.40;;;2.20;;
13927;SDS011;7036;50.834;4.718;2023-08-24T00:28:47;3.17;;;2.10;;
13927;SDS011;7036;50.834;4.718;2023-08-24T00:31:16;4.13;;;2.60;;
13927;SDS011;7036;50.834;4.718;2023-08-24T00:33:44;2.50;;;2.30;;
13927;SDS011;7036;50.834;4.718;2023-08-24T00:36:12;2.80;;;2.23;;
13927;SDS011;7036;50.834;4.718;2023-08-24T00:38:38;4.10;;;2.60;;
13927;SDS011;7036;50.834;4.718;2023-08-24T00:41:05;4.13;;;2.47;;
13927;SDS011;7036;50.834;4.718;2023-08-24T00:43:32;4.90;;;2.77;;
13927;SDS011;7036;50.834;4.718;2023-08-24T00:45:59;3.40;;;2.60;;
13927;SDS011;7036;50.834;4.718;2023-08-24T00:48:26;2.37;;;2.17;;
13927;SDS011;7036;50.834;4.718;2023-08-24T00:50:54;4.80;;;2.43;;
13927;SDS011;7036;50.834;4.718;2023-08-24T00:53:24;3.30;;;2.40;;
13927;SDS011;7036;50.834;4.718;2023-08-24T00:55:50;3.73;;;2.40;;
13927;SDS011;7036;50.834;4.718;2023-08-24T00:58:17;2.53;;;2.33;;
13927;SDS011;7036;50.834;4.718;2023-08-24T01:00:45;3.27;;;2.27;;
13927;SDS011;7036;50.834;4.718;2023-08-24T01:03:12;2.47;;;2.27;;
13927;SDS011;7036;50.834;4.718;2023-08-24T01:05:39;3.83;;;2.20;;
13927;SDS011;7036;50.834;4.718;2023-08-24T01:08:05;3.40;;;2.30;;
13927;SDS011;7036;50.834;4.718;2023-08-24T01:10:39;4.07;;;2.50;;
13927;SDS011;7036;50.834;4.718;2023-08-24T01:13:07;4.37;;;2.50;;
13927;SDS011;7036;50.834;4.718;2023-08-24T01:18:04;2.57;;;2.37;;
13927;SDS011;7036;50.834;4.718;2023-08-24T01:20:28;4.47;;;2.30;;
13927;SDS011;7036;50.834;4.718;2023-08-24T01:23:03;2.73;;;2.33;;
13927;SDS011;7036;50.834;4.718;2023-08-24T01:25:47;2.93;;;2.60;;
13927;SDS011;7036;50.834;4.718;2023-08-24T01:28:15;4.63;;;2.30;;
13927;SDS011;7036;50.834;4.718;2023-08-24T01:30:42;2.87;;;2.37;;
13927;SDS011;7036;50.834;4.718;2023-08-24T01:33:09;3.60;;;2.57;;
13927;SDS011;7036;50.834;4.718;2023-08-24T01:35:35;2.50;;;2.30;;
13927;SDS011;7036;50.834;4.718;2023-08-24T01:38:02;2.60;;;2.40;;
13927;SDS011;7036;50.834;4.718;2023-08-24T01:43:11;2.47;;;2.27;;
13927;SDS011;7036;50.834;4.718;2023-08-24T01:45:38;3.53;;;2.40;;
13927;SDS011;7036;50.834;4.718;2023-08-24T01:48:04;5.73;;;2.20;;
13927;SDS011;7036;50.834;4.718;2023-08-24T01:50:31;2.83;;;2.60;;
13927;SDS011;7036;50.834;4.718;2023-08-24T01:52:58;2.67;;;2.33;;
13927;SDS011;7036;50.834;4.718;2023-08-24T01:55:25;3.10;;;2.80;;
13927;SDS011;7036;50.834;4.718;2023-08-24T01:57:54;3.23;;;2.10;;
13927;SDS011;7036;50.834;4.718;2023-08-24T02:00:19;3.30;;;2.50;;
13927;SDS011;7036;50.834;4.718;2023-08-24T02:02:46;2.80;;;2.60;;
13927;SDS011;7036;50.834;4.718;2023-08-24T02:05:13;2.93;;;2.33;;
13927;SDS011;7036;50.834;4.718;2023-08-24T02:07:40;3.37;;;2.57;;
13927;SDS011;7036;50.834;4.718;2023-08-24T02:10:07;2.77;;;2.30;;
13927;SDS011;7036;50.834;4.718;2023-08-24T02:12:34;2.50;;;2.30;;
13927;SDS011;7036;50.834;4.718;2023-08-24T02:15:01;2.83;;;2.40;;
13927;SDS011;7036;50.834;4.718;2023-08-24T02:17:28;2.50;;;2.30;;
13927;SDS011;7036;50.834;4.718;2023-08-24T02:19:55;2.97;;;2.30;;
13927;SDS011;7036;50.834;4.718;2023-08-24T02:22:22;2.73;;;1.87;;
13927;SDS011;7036;50.834;4.718;2023-08-24T02:24:49;4.13;;;2.30;;
13927;SDS011;7036;50.834;4.718;2023-08-24T02:27:16;3.07;;;2.50;;
13927;SDS011;7036;50.834;4.718;2023-08-24T02:29:43;4.80;;;2.57;;
13927;SDS011;7036;50.834;4.718;2023-08-24T02:32:10;3.23;;;2.30;;
13927;SDS011;7036;50.834;4.718;2023-08-24T02:34:37;2.53;;;2.17;;
13927;SDS011;7036;50.834;4.718;2023-08-24T02:37:04;3.63;;;2.70;;
13927;SDS011;7036;50.834;4.718;2023-08-24T02:39:31;3.60;;;2.30;;
13927;SDS011;7036;50.834;4.718;2023-08-24T02:41:58;4.03;;;2.53;;
13927;SDS011;7036;50.834;4.718;2023-08-24T02:44:26;4.00;;;2.40;;
13927;SDS011;7036;50.834;4.718;2023-08-24T02:46:53;2.83;;;2.50;;
13927;SDS011;7036;50.834;4.718;2023-08-24T02:49:20;3.47;;;2.67;;
13927;SDS011;7036;50.834;4.718;2023-08-24T02:51:46;2.60;;;2.40;;
13927;SDS011;7036;50.834;4.718;2023-08-24T02:54:13;3.33;;;2.20;;
13927;SDS011;7036;50.834;4.718;2023-08-24T02:56:40;2.83;;;2.57;;
13927;SDS011;7036;50.834;4.718;2023-08-24T02:59:07;3.10;;;2.70;;
13927;SDS011;7036;50.834;4.718;2023-08-24T03:01:34;2.77;;;2.57;;
13927;SDS011;7036;50.834;4.718;2023-08-24T03:04:01;2.60;;;2.40;;
13927;SDS011;7036;50.834;4.718;2023-08-24T03:06:28;3.57;;;2.47;;
13927;SDS011;7036;50.834;4.718;2023-08-24T03:08:55;3.30;;;2.53;;
13927;SDS011;7036;50.834;4.718;2023-08-24T03:11:22;2.87;;;2.53;;
13927;SDS011;7036;50.834;4.718;2023-08-24T03:13:49;2.67;;;2.20;;
13927;SDS011;7036;50.834;4.718;2023-08-24T03:16:16;2.80;;;2.47;;
13927;SDS011;7036;50.834;4.718;2023-08-24T03:18:43;3.03;;;2.50;;
13927;SDS011;7036;50.834;4.718;2023-08-24T03:21:10;2.67;;;2.37;;
13927;SDS011;7036;50.834;4.718;2023-08-24T03:23:37;2.87;;;2.20;;
13927;SDS011;7036;50.834;4.718;2023-08-24T03:26:04;3.63;;;2.63;;
13927;SDS011;7036;50.834;4.718;2023-08-24T03:28:30;2.50;;;2.30;;
13927;SDS011;7036;50.834;4.718;2023-08-24T03:30:57;2.20;;;2.07;;
13927;SDS011;7036;50.834;4.718;2023-08-24T03:33:24;2.90;;;2.63;;
13927;SDS011;7036;50.834;4.718;2023-08-24T03:35:51;2.70;;;2.50;;
13927;SDS011;7036;50.834;4.718;2023-08-24T03:38:18;2.40;;;2.20;;
13927;SDS011;7036;50.834;4.718;2023-08-24T03:40:45;5.43;;;2.63;;
13927;SDS011;7036;50.834;4.718;2023-08-24T03:43:12;2.80;;;2.60;;
13927;SDS011;7036;50.834;4.718;2023-08-24T03:45:39;4.93;;;2.50;;
13927;SDS011;7036;50.834;4.718;2023-08-24T03:48:06;2.73;;;2.30;;
13927;SDS011;7036;50.834;4.718;2023-08-24T03:50:33;2.20;;;2.10;;
13927;SDS011;7036;50.834;4.718;2023-08-24T03:53:00;2.60;;;2.40;;
13927;SDS011;7036;50.834;4.718;2023-08-24T03:55:27;2.73;;;2.47;;
13927;SDS011;7036;50.834;4.718;2023-08-24T03:57:54;2.50;;;2.30;;
13927;SDS011;7036;50.834;4.718;2023-08-24T04:00:21;3.07;;;2.20;;
13927;SDS011;7036;50.834;4.718;2023-08-24T04:02:48;2.50;;;2.17;;
13927;SDS011;7036;50.834;4.718;2023-08-24T04:05:15;2.70;;;2.50;;
13927;SDS011;7036;50.834;4.718;2023-08-24T04:07:41;3.53;;;2.40;;
13927;SDS011;7036;50.834;4.718;2023-08-24T04:10:09;3.33;;;2.67;;
13927;SDS011;7036;50.834;4.718;2023-08-24T04:12:36;2.40;;;2.20;;
13927;SDS011;7036;50.834;4.718;2023-08-24T04:15:03;2.57;;;2.37;;
13927;SDS011;7036;50.834;4.718;2023-08-24T04:17:29;2.37;;;2.17;;
13927;SDS011;7036;50.834;4.718;2023-08-24T04:19:56;2.23;;;2.03;;
13927;SDS011;7036;50.834;4.718;2023-08-24T04:22:23;3.60;;;2.50;;
13927;SDS011;7036;50.834;4.718;2023-08-24T04:24:50;2.67;;;2.40;;
13927;SDS011;7036;50.834;4.718;2023-08-24T04:27:17;2.60;;;2.40;;
13927;SDS011;7036;50.834;4.718;2023-08-24T04:29:44;3.37;;;2.57;;
13927;SDS011;7036;50.834;4.718;2023-08-24T04:32:11;2.33;;;2.13;;
13927;SDS011;7036;50.834;4.718;2023-08-24T04:34:38;4.00;;;2.70;;
13927;SDS011;7036;50.834;4.718;2023-08-24T04:37:05;2.90;;;2.53;;
13927;SDS011;7036;50.834;4.718;2023-08-24T04:39:32;2.60;;;2.40;;
13927;SDS011;7036;50.834;4.718;2023-08-24T04:41:59;2.87;;;2.67;;
13927;SDS011;7036;50.834;4.718;2023-08-24T04:44:26;2.70;;;2.50;;
13927;SDS011;7036;50.834;4.718;2023-08-24T04:46:53;2.70;;;2.50;;
13927;SDS011;7036;50.834;4.718;2023-08-24T04:49:20;2.83;;;2.60;;
13927;SDS011;7036;50.834;4.718;2023-08-24T04:51:47;2.23;;;2.13;;
13927;SDS011;7036;50.834;4.718;2023-08-24T04:54:14;3.13;;;2.27;;
13927;SDS011;7036;50.834;4.718;2023-08-24T04:56:41;3.10;;;2.80;;
13927;SDS011;7036;50.834;4.718;2023-08-24T04:59:07;2.63;;;2.43;;
13927;SDS011;7036;50.834;4.718;2023-08-24T05:01:34;2.80;;;2.10;;
13927;SDS011;7036;50.834;4.718;2023-08-24T05:04:01;2.67;;;2.47;;
13927;SDS011;7036;50.834;4.718;2023-08-24T05:06:28;2.90;;;1.97;;
13927;SDS011;7036;50.834;4.718;2023-08-24T05:08:55;2.97;;;2.67;;
13927;SDS011;7036;50.834;4.718;2023-08-24T05:11:23;2.83;;;2.23;;
13927;SDS011;7036;50.834;4.718;2023-08-24T05:13:49;2.53;;;2.33;;
13927;SDS011;7036;50.834;4.718;2023-08-24T05:16:16;2.87;;;2.60;;
13927;SDS011;7036;50.834;4.718;2023-08-24T05:18:43;2.60;;;2.40;;
13927;SDS011;7036;50.834;4.718;2023-08-24T05:21:10;2.23;;;1.93;;
13927;SDS011;7036;50.834;4.718;2023-08-24T05:23:37;2.57;;;2.37;;
13927;SDS011;7036;50.834;4.718;2023-08-24T05:26:04;2.10;;;2.00;;
13927;SDS011;7036;50.834;4.718;2023-08-24T05:28:32;3.17;;;2.67;;
13927;SDS011;7036;50.834;4.718;2023-08-24T05:30:58;2.80;;;2.17;;
13927;SDS011;7036;50.834;4.718;2023-08-24T05:33:27;2.57;;;2.30;;
13927;SDS011;7036;50.834;4.718;2023-08-24T05:35:52;2.63;;;2.33;;
13927;SDS011;7036;50.834;4.718;2023-08-24T05:38:19;2.40;;;2.10;;
13927;SDS011;7036;50.834;4.718;2023-08-24T05:40:47;2.50;;;2.30;;
13927;SDS011;7036;50.834;4.718;2023-08-24T05:43:13;3.30;;;2.20;;
13927;SDS011;7036;50.834;4.718;2023-08-24T05:45:40;3.87;;;2.17;;
13927;SDS011;7036;50.834;4.718;2023-08-24T05:48:07;2.60;;;2.40;;
13927;SDS011;7036;50.834;4.718;2023-08-24T05:50:34;2.77;;;2.43;;
13927;SDS011;7036;50.834;4.718;2023-08-24T05:53:01;2.30;;;2.00;;
13927;SDS011;7036;50.834;4.718;2023-08-24T05:55:30;4.27;;;2.80;;
13927;SDS011;7036;50.834;4.718;2023-08-24T05:57:56;2.70;;;2.37;;
13927;SDS011;7036;50.834;4.718;2023-08-24T06:00:23;5.10;;;2.63;;
13927;SDS011;7036;50.834;4.718;2023-08-24T06:02:50;7.63;;;3.70;;
13927;SDS011;7036;50.834;4.718;2023-08-24T06:05:17;6.17;;;3.43;;
13927;SDS011;7036;50.834;4.718;2023-08-24T06:07:45;4.33;;;3.23;;
13927;SDS011;7036;50.834;4.718;2023-08-24T06:10:14;2.80;;;2.53;;
13927;SDS011;7036;50.834;4.718;2023-08-24T06:12:41;4.33;;;3.47;;
13927;SDS011;7036;50.834;4.718;2023-08-24T06:15:08;4.10;;;3.50;;
13927;SDS011;7036;50.834;4.718;2023-08-24T06:17:35;3.60;;;3.30;;
13927;SDS011;7036;50.834;4.718;2023-08-24T06:20:03;7.53;;;3.73;;
13927;SDS011;7036;50.834;4.718;2023-08-24T06:22:29;4.93;;;3.77;;
13927;SDS011;7036;50.834;4.718;2023-08-24T06:24:56;12.53;;;4.67;;
13927;SDS011;7036;50.834;4.718;2023-08-24T06:27:23;5.93;;;4.70;;
13927;SDS011;7036;50.834;4.718;2023-08-24T06:29:50;9.50;;;4.60;;
13927;SDS011;7036;50.834;4.718;2023-08-24T06:32:17;8.37;;;4.40;;
13927;SDS011;7036;50.834;4.718;2023-08-24T06:34:43;9.73;;;4.80;;
13927;SDS011;7036;50.834;4.718;2023-08-24T06:37:11;7.40;;;5.20;;
13927;SDS011;7036;50.834;4.718;2023-08-24T06:39:37;7.30;;;4.70;;
13927;SDS011;7036;50.834;4.718;2023-08-24T06:42:04;5.23;;;4.20;;
13927;SDS011;7036;50.834;4.718;2023-08-24T06:44:31;5.93;;;4.30;;
13927;SDS011;7036;50.834;4.718;2023-08-24T06:46:58;9.33;;;4.37;;
13927;SDS011;7036;50.834;4.718;2023-08-24T06:49:25;6.37;;;4.50;;
13927;SDS011;7036;50.834;4.718;2023-08-24T06:51:52;4.80;;;3.97;;
13927;SDS011;7036;50.834;4.718;2023-08-24T06:54:19;6.83;;;4.57;;
13927;SDS011;7036;50.834;4.718;2023-08-24T06:56:46;8.80;;;4.10;;
13927;SDS011;7036;50.834;4.718;2023-08-24T06:59:13;8.70;;;4.03;;
13927;SDS011;7036;50.834;4.718;2023-08-24T07:01:40;6.03;;;4.53;;
13927;SDS011;7036;50.834;4.718;2023-08-24T07:04:07;4.40;;;3.87;;
13927;SDS011;7036;50.834;4.718;2023-08-24T07:06:34;6.70;;;4.40;;
13927;SDS011;7036;50.834;4.718;2023-08-24T07:09:01;6.80;;;4.50;;
13927;SDS011;7036;50.834;4.718;2023-08-24T07:11:29;6.67;;;4.40;;
13927;SDS011;7036;50.834;4.718;2023-08-24T07:13:55;6.10;;;3.90;;
13927;SDS011;7036;50.834;4.718;2023-08-24T07:16:22;5.97;;;4.23;;
13927;SDS011;7036;50.834;4.718;2023-08-24T07:18:49;5.67;;;4.10;;
13927;SDS011;7036;50.834;4.718;2023-08-24T07:21:16;5.73;;;3.77;;
13927;SDS011;7036;50.834;4.718;2023-08-24T07:23:44;6.53;;;4.10;;
13927;SDS011;7036;50.834;4.718;2023-08-24T07:26:12;6.13;;;3.77;;
13927;SDS011;7036;50.834;4.718;2023-08-24T07:28:38;6.53;;;4.03;;
13927;SDS011;7036;50.834;4.718;2023-08-24T07:31:11;4.93;;;4.00;;
13927;SDS011;7036;50.834;4.718;2023-08-24T07:33:38;9.23;;;3.97;;
13927;SDS011;7036;50.834;4.718;2023-08-24T07:36:08;6.00;;;3.63;;
13927;SDS011;7036;50.834;4.718;2023-08-24T07:38:35;4.83;;;3.77;;
13927;SDS011;7036;50.834;4.718;2023-08-24T07:41:03;7.37;;;3.80;;
13927;SDS011;7036;50.834;4.718;2023-08-24T07:43:30;5.60;;;3.63;;
13927;SDS011;7036;50.834;4.718;2023-08-24T07:45:57;5.40;;;3.77;;
13927;SDS011;7036;50.834;4.718;2023-08-24T07:48:24;8.97;;;4.30;;
13927;SDS011;7036;50.834;4.718;2023-08-24T07:50:51;9.47;;;3.93;;
13927;SDS011;7036;50.834;4.718;2023-08-24T07:53:17;4.93;;;4.13;;
13927;SDS011;7036;50.834;4.718;2023-08-24T07:55:44;5.50;;;4.10;;
13927;SDS011;7036;50.834;4.718;2023-08-24T07:58:11;11.13;;;4.40;;
13927;SDS011;7036;50.834;4.718;2023-08-24T08:00:38;4.40;;;4.00;;
13927;SDS011;7036;50.834;4.718;2023-08-24T08:03:05;4.93;;;4.00;;
13927;SDS011;7036;50.834;4.718;2023-08-24T08:05:32;7.93;;;4.10;;
13927;SDS011;7036;50.834;4.718;2023-08-24T08:07:59;11.20;;;4.40;;
13927;SDS011;7036;50.834;4.718;2023-08-24T08:10:26;8.90;;;4.77;;
13927;SDS011;7036;50.834;4.718;2023-08-24T08:12:53;12.13;;;4.20;;
13927;SDS011;7036;50.834;4.718;2023-08-24T08:15:20;8.17;;;4.73;;
13927;SDS011;7036;50.834;4.718;2023-08-24T08:17:47;5.37;;;3.40;;
13927;SDS011;7036;50.834;4.718;2023-08-24T08:20:15;5.47;;;3.73;;
13927;SDS011;7036;50.834;4.718;2023-08-24T08:22:42;6.13;;;3.60;;
13927;SDS011;7036;50.834;4.718;2023-08-24T08:25:09;5.03;;;3.50;;
13927;SDS011;7036;50.834;4.718;2023-08-24T08:27:36;7.67;;;3.73;;
13927;SDS011;7036;50.834;4.718;2023-08-24T08:30:03;7.10;;;3.70;;
13927;SDS011;7036;50.834;4.718;2023-08-24T08:32:30;4.07;;;3.63;;
13927;SDS011;7036;50.834;4.718;2023-08-24T08:34:57;4.33;;;3.90;;
13927;SDS011;7036;50.834;4.718;2023-08-24T08:37:24;5.13;;;3.70;;
13927;SDS011;7036;50.834;4.718;2023-08-24T08:39:51;5.13;;;3.43;;
13927;SDS011;7036;50.834;4.718;2023-08-24T08:42:18;3.67;;;3.37;;
13927;SDS011;7036;50.834;4.718;2023-08-24T08:44:45;5.03;;;3.17;;
13927;SDS011;7036;50.834;4.718;2023-08-24T08:47:12;3.80;;;3.47;;
13927;SDS011;7036;50.834;4.718;2023-08-24T08:49:39;4.73;;;3.87;;
13927;SDS011;7036;50.834;4.718;2023-08-24T08:52:06;5.33;;;3.50;;
13927;SDS011;7036;50.834;4.718;2023-08-24T08:54:33;5.77;;;3.17;;
13927;SDS011;7036;50.834;4.718;2023-08-24T08:57:00;5.63;;;4.07;;
13927;SDS011;7036;50.834;4.718;2023-08-24T08:59:29;3.90;;;3.50;;
13927;SDS011;7036;50.834;4.718;2023-08-24T09:01:56;4.00;;;3.40;;
13927;SDS011;7036;50.834;4.718;2023-08-24T09:04:25;5.90;;;3.30;;
13927;SDS011;7036;50.834;4.718;2023-08-24T09:06:50;5.57;;;3.53;;
13927;SDS011;7036;50.834;4.718;2023-08-24T09:09:17;3.83;;;3.17;;
13927;SDS011;7036;50.834;4.718;2023-08-24T09:11:44;3.27;;;2.97;;
13927;SDS011;7036;50.834;4.718;2023-08-24T09:14:11;4.17;;;3.10;;
13927;SDS011;7036;50.834;4.718;2023-08-24T09:16:38;4.10;;;3.70;;
13927;SDS011;7036;50.834;4.718;2023-08-24T09:19:05;5.53;;;3.90;;
13927;SDS011;7036;50.834;4.718;2023-08-24T09:21:31;7.43;;;3.70;;
13927;SDS011;7036;50.834;4.718;2023-08-24T09:23:59;8.33;;;3.53;;
13927;SDS011;7036;50.834;4.718;2023-08-24T09:26:29;7.37;;;2.93;;
13927;SDS011;7036;50.834;4.718;2023-08-24T09:28:58;4.90;;;3.23;;
13927;SDS011;7036;50.834;4.718;2023-08-24T09:31:35;5.60;;;3.53;;
13927;SDS011;7036;50.834;4.718;2023-08-24T09:34:01;5.27;;;3.23;;
13927;SDS011;7036;50.834;4.718;2023-08-24T09:36:30;4.87;;;3.07;;
13927;SDS011;7036;50.834;4.718;2023-08-24T09:38:59;13.50;;;3.33;;
13927;SDS011;7036;50.834;4.718;2023-08-24T09:41:36;6.60;;;3.20;;
13927;SDS011;7036;50.834;4.718;2023-08-24T09:43:52;11.03;;;4.27;;
13927;SDS011;7036;50.834;4.718;2023-08-24T09:46:19;8.37;;;4.03;;
13927;SDS011;7036;50.834;4.718;2023-08-24T09:48:46;5.50;;;3.77;;
13927;SDS011;7036;50.834;4.718;2023-08-24T09:51:13;12.53;;;4.37;;
13927;SDS011;7036;50.834;4.718;2023-08-24T09:53:40;9.33;;;3.53;;
13927;SDS011;7036;50.834;4.718;2023-08-24T09:56:06;6.30;;;3.50;;
13927;SDS011;7036;50.834;4.718;2023-08-24T09:58:33;6.47;;;3.20;;
13927;SDS011;7036;50.834;4.718;2023-08-24T10:01:00;7.90;;;3.80;;
13927;SDS011;7036;50.834;4.718;2023-08-24T10:03:27;9.40;;;3.80;;
13927;SDS011;7036;50.834;4.718;2023-08-24T10:05:55;12.73;;;4.60;;
13927;SDS011;7036;50.834;4.718;2023-08-24T10:08:22;7.87;;;3.73;;
13927;SDS011;7036;50.834;4.718;2023-08-24T10:10:49;11.43;;;3.40;;
13927;SDS011;7036;50.834;4.718;2023-08-24T10:13:20;4.77;;;3.47;;
13927;SDS011;7036;50.834;4.718;2023-08-24T10:15:44;7.30;;;3.30;;
13927;SDS011;7036;50.834;4.718;2023-08-24T10:18:13;6.47;;;3.10;;
13927;SDS011;7036;50.834;4.718;2023-08-24T10:20:38;6.37;;;3.50;;
13927;SDS011;7036;50.834;4.718;2023-08-24T10:23:05;4.87;;;3.23;;
13927;SDS011;7036;50.834;4.718;2023-08-24T10:25:32;7.87;;;3.43;;
13927;SDS011;7036;50.834;4.718;2023-08-24T10:27:59;8.93;;;3.93;;
13927;SDS011;7036;50.834;4.718;2023-08-24T10:30:26;8.27;;;3.93;;
13927;SDS011;7036;50.834;4.718;2023-08-24T10:32:53;10.03;;;3.67;;
13927;SDS011;7036;50.834;4.718;2023-08-24T10:35:20;7.03;;;3.43;;
13927;SDS011;7036;50.834;4.718;2023-08-24T10:37:47;7.17;;;3.50;;
13927;SDS011;7036;50.834;4.718;2023-08-24T10:40:14;7.13;;;3.73;;
13927;SDS011;7036;50.834;4.718;2023-08-24T10:42:45;9.73;;;3.90;;
13927;SDS011;7036;50.834;4.718;2023-08-24T10:45:14;5.60;;;3.40;;
13927;SDS011;7036;50.834;4.718;2023-08-24T10:47:44;6.73;;;3.33;;
13927;SDS011;7036;50.834;4.718;2023-08-24T10:50:10;8.93;;;3.30;;
13927;SDS011;7036;50.834;4.718;2023-08-24T10:52:37;6.70;;;3.70;;
13927;SDS011;7036;50.834;4.718;2023-08-24T10:55:04;7.27;;;3.93;;
13927;SDS011;7036;50.834;4.718;2023-08-24T10:57:40;8.77;;;3.40;;
13927;SDS011;7036;50.834;4.718;2023-08-24T11:00:11;6.60;;;3.83;;
13927;SDS011;7036;50.834;4.718;2023-08-24T11:02:41;7.53;;;4.17;;
13927;SDS011;7036;50.834;4.718;2023-08-24T11:05:17;6.37;;;3.70;;
13927;SDS011;7036;50.834;4.718;2023-08-24T11:07:49;5.90;;;3.53;;
13927;SDS011;7036;50.834;4.718;2023-08-24T11:10:16;13.93;;;3.90;;
13927;SDS011;7036;50.834;4.718;2023-08-24T11:15:32;8.83;;;4.33;;
13927;SDS011;7036;50.834;4.718;2023-08-24T11:20:47;5.60;;;4.20;;
13927;SDS011;7036;50.834;4.718;2023-08-24T11:23:16;4.80;;;3.50;;
13927;SDS011;7036;50.834;4.718;2023-08-24T11:25:43;6.60;;;3.60;;
13927;SDS011;7036;50.834;4.718;2023-08-24T11:28:10;7.80;;;3.77;;
13927;SDS011;7036;50.834;4.718;2023-08-24T11:30:37;5.30;;;3.50;;
13927;SDS011;7036;50.834;4.718;2023-08-24T11:33:04;7.43;;;3.80;;
13927;SDS011;7036;50.834;4.718;2023-08-24T11:35:34;5.97;;;3.40;;
13927;SDS011;7036;50.834;4.718;2023-08-24T11:37:58;4.60;;;3.43;;
13927;SDS011;7036;50.834;4.718;2023-08-24T11:40:24;8.80;;;4.00;;
13927;SDS011;7036;50.834;4.718;2023-08-24T11:42:54;9.17;;;3.50;;
13927;SDS011;7036;50.834;4.718;2023-08-24T11:45:21;8.67;;;3.73;;
13927;SDS011;7036;50.834;4.718;2023-08-24T11:47:48;10.20;;;3.67;;
13927;SDS011;7036;50.834;4.718;2023-08-24T11:50:15;5.97;;;3.67;;
13927;SDS011;7036;50.834;4.718;2023-08-24T11:52:42;8.10;;;3.77;;
13927;SDS011;7036;50.834;4.718;2023-08-24T11:55:08;6.97;;;3.97;;
13927;SDS011;7036;50.834;4.718;2023-08-24T11:57:35;5.20;;;3.70;;
13927;SDS011;7036;50.834;4.718;2023-08-24T12:00:03;4.60;;;3.60;;
13927;SDS011;7036;50.834;4.718;2023-08-24T12:02:30;10.60;;;4.13;;
13927;SDS011;7036;50.834;4.718;2023-08-24T12:04:57;6.53;;;4.17;;
13927;SDS011;7036;50.834;4.718;2023-08-24T12:07:24;6.37;;;3.70;;
13927;SDS011;7036;50.834;4.718;2023-08-24T12:09:52;8.67;;;3.73;;
13927;SDS011;7036;50.834;4.718;2023-08-24T12:12:18;7.03;;;3.67;;
13927;SDS011;7036;50.834;4.718;2023-08-24T12:14:45;4.33;;;3.90;;
13927;SDS011;7036;50.834;4.718;2023-08-24T12:17:13;5.60;;;3.83;;
13927;SDS011;7036;50.834;4.718;2023-08-24T12:19:43;8.23;;;3.90;;
13927;SDS011;7036;50.834;4.718;2023-08-24T12:22:19;6.03;;;3.73;;
13927;SDS011;7036;50.834;4.718;2023-08-24T12:24:42;5.60;;;4.03;;
13927;SDS011;7036;50.834;4.718;2023-08-24T12:27:05;5.57;;;3.67;;
13927;SDS011;7036;50.834;4.718;2023-08-24T12:29:32;4.93;;;3.87;;
13927;SDS011;7036;50.834;4.718;2023-08-24T12:32:00;4.07;;;3.67;;
13927;SDS011;7036;50.834;4.718;2023-08-24T12:34:27;6.27;;;4.03;;
13927;SDS011;7036;50.834;4.718;2023-08-24T12:36:54;4.37;;;3.57;;
13927;SDS011;7036;50.834;4.718;2023-08-24T12:39:21;4.07;;;3.40;;
13927;SDS011;7036;50.834;4.718;2023-08-24T12:41:48;4.77;;;3.40;;
13927;SDS011;7036;50.834;4.718;2023-08-24T12:44:14;5.13;;;3.53;;
13927;SDS011;7036;50.834;4.718;2023-08-24T12:46:41;7.07;;;3.90;;
13927;SDS011;7036;50.834;4.718;2023-08-24T12:49:08;3.97;;;3.20;;
13927;SDS011;7036;50.834;4.718;2023-08-24T12:51:35;3.37;;;3.07;;
13927;SDS011;7036;50.834;4.718;2023-08-24T12:54:02;5.13;;;4.10;;
13927;SDS011;7036;50.834;4.718;2023-08-24T12:56:29;5.43;;;3.33;;
13927;SDS011;7036;50.834;4.718;2023-08-24T12:58:56;7.67;;;3.83;;
13927;SDS011;7036;50.834;4.718;2023-08-24T13:01:23;4.77;;;3.47;;
13927;SDS011;7036;50.834;4.718;2023-08-24T13:03:50;6.83;;;3.67;;
13927;SDS011;7036;50.834;4.718;2023-08-24T13:06:17;5.50;;;3.23;;
13927;SDS011;7036;50.834;4.718;2023-08-24T13:08:44;5.37;;;3.97;;
13927;SDS011;7036;50.834;4.718;2023-08-24T13:11:11;6.87;;;3.77;;
13927;SDS011;7036;50.834;4.718;2023-08-24T13:13:38;7.03;;;3.50;;
13927;SDS011;7036;50.834;4.718;2023-08-24T13:16:05;4.47;;;3.20;;
13927;SDS011;7036;50.834;4.718;2023-08-24T13:18:32;5.67;;;3.33;;
13927;SDS011;7036;50.834;4.718;2023-08-24T13:20:59;4.90;;;3.87;;
13927;SDS011;7036;50.834;4.718;2023-08-24T13:23:25;6.40;;;3.13;;
13927;SDS011;7036;50.834;4.718;2023-08-24T13:25:52;5.93;;;3.20;;
13927;SDS011;7036;50.834;4.718;2023-08-24T13:28:19;5.20;;;3.27;;
13927;SDS011;7036;50.834;4.718;2023-08-24T13:30:46;4.33;;;3.40;;
13927;SDS011;7036;50.834;4.718;2023-08-24T13:33:13;5.17;;;3.53;;
13927;SDS011;7036;50.834;4.718;2023-08-24T13:35:40;3.80;;;3.50;;
13927;SDS011;7036;50.834;4.718;2023-08-24T13:38:07;3.87;;;3.10;;
13927;SDS011;7036;50.834;4.718;2023-08-24T13:40:34;5.43;;;3.23;;
13927;SDS011;7036;50.834;4.718;2023-08-24T13:43:01;5.27;;;3.30;;
13927;SDS011;7036;50.834;4.718;2023-08-24T13:45:28;4.63;;;2.97;;
13927;SDS011;7036;50.834;4.718;2023-08-24T13:47:55;5.57;;;3.40;;
13927;SDS011;7036;50.834;4.718;2023-08-24T13:50:22;4.47;;;2.87;;
13927;SDS011;7036;50.834;4.718;2023-08-24T13:52:49;3.90;;;3.27;;
13927;SDS011;7036;50.834;4.718;2023-08-24T13:55:16;4.17;;;3.40;;
13927;SDS011;7036;50.834;4.718;2023-08-24T13:57:43;5.27;;;3.00;;
13927;SDS011;7036;50.834;4.718;2023-08-24T14:00:10;4.53;;;2.77;;
13927;SDS011;7036;50.834;4.718;2023-08-24T14:02:37;4.13;;;3.20;;
13927;SDS011;7036;50.834;4.718;2023-08-24T14:05:04;2.97;;;2.67;;
13927;SDS011;7036;50.834;4.718;2023-08-24T14:07:31;3.80;;;2.60;;
13927;SDS011;7036;50.834;4.718;2023-08-24T14:09:58;6.87;;;3.17;;
13927;SDS011;7036;50.834;4.718;2023-08-24T14:12:25;3.40;;;2.53;;
13927;SDS011;7036;50.834;4.718;2023-08-24T14:14:52;3.67;;;2.20;;
13927;SDS011;7036;50.834;4.718;2023-08-24T14:17:19;5.07;;;2.43;;
13927;SDS011;7036;50.834;4.718;2023-08-24T14:19:45;5.77;;;3.30;;
13927;SDS011;7036;50.834;4.718;2023-08-24T14:22:12;4.63;;;2.60;;
13927;SDS011;7036;50.834;4.718;2023-08-24T14:24:39;4.67;;;2.60;;
13927;SDS011;7036;50.834;4.718;2023-08-24T14:27:06;9.17;;;2.80;;
13927;SDS011;7036;50.834;4.718;2023-08-24T14:29:33;8.77;;;3.30;;
13927;SDS011;7036;50.834;4.718;2023-08-24T14:32:00;4.37;;;2.93;;
13927;SDS011;7036;50.834;4.718;2023-08-24T14:34:27;6.80;;;3.13;;
13927;SDS011;7036;50.834;4.718;2023-08-24T14:36:54;11.43;;;3.73;;
13927;SDS011;7036;50.834;4.718;2023-08-24T14:39:21;10.40;;;3.47;;
13927;SDS011;7036;50.834;4.718;2023-08-24T14:41:48;5.33;;;3.30;;
13927;SDS011;7036;50.834;4.718;2023-08-24T14:44:15;15.90;;;3.80;;
13927;SDS011;7036;50.834;4.718;2023-08-24T14:46:42;4.97;;;2.77;;
13927;SDS011;7036;50.834;4.718;2023-08-24T14:49:09;10.40;;;3.20;;
13927;SDS011;7036;50.834;4.718;2023-08-24T14:51:36;7.63;;;2.93;;
13927;SDS011;7036;50.834;4.718;2023-08-24T14:54:03;5.83;;;2.80;;
13927;SDS011;7036;50.834;4.718;2023-08-24T14:56:30;4.87;;;2.57;;
13927;SDS011;7036;50.834;4.718;2023-08-24T14:58:56;3.90;;;2.70;;
13927;SDS011;7036;50.834;4.718;2023-08-24T15:01:23;5.27;;;3.40;;
13927;SDS011;7036;50.834;4.718;2023-08-24T15:03:50;7.33;;;2.60;;
13927;SDS011;7036;50.834;4.718;2023-08-24T15:06:17;9.10;;;3.10;;
13927;SDS011;7036;50.834;4.718;2023-08-24T15:08:44;5.47;;;2.43;;
13927;SDS011;7036;50.834;4.718;2023-08-24T15:11:13;5.57;;;2.80;;